Kailua, HI (96734)

3:33 PM HST on February 26, 2015 (GMT -1000)
Kailua Beach | Change Station
CLOSE
Current Station
Personal Weather Station
Location: Kailua, HI
Elevation: 0 ft
Nearby Weather Stations

Elev 0 ft 21.40 °N, 157.73 °W | Updated 25 seconds ago

Mostly Cloudy
Mostly Cloudy
76.3 °F
Feels Like 77 °F
N
2.0
Wind Variable Wind from East
Gusts 2.0 mph

Today
High -- | Low -- °F
--% Chance of Precip.
Yesterday
High -- | Low -- °F
Precip. -- in
6:53 AM 6:34 PM
Waxing Gibbous, 64% visible
Pressure 29.88 in
Visibility -9999.0 miles
Clouds Scattered Clouds 2500 ft
Mostly Cloudy 10000 ft
Heat Index 77 °F
Dew Point 73 °F
Humidity 88%
Rainfall 0.10 in
Snow Depth Not available.
UV 3 out of 12
Pollen Not available.
Air Quality Not available.
Flu Activity Not available.
SPECI PHNG 270113Z 04007KT SCT025 BKN100 25/21 A2988 RMK AO2 T02500211 $

More Conditions Fewer Conditions

Pressure 29.88 in
Visibility -9999.0 miles
Clouds Scattered Clouds 2500 ft
Mostly Cloudy 10000 ft
Heat Index 77 °F
Dew Point 73 °F
Humidity 88%
Rainfall 0.10 in
Snow Depth Not available.
UV 3 out of 12
Pollen Not available.
Air Quality Not available.
Flu Activity Not available.
SPECI PHNG 270113Z 04007KT SCT025 BKN100 25/21 A2988 RMK AO2 T02500211 $

More Conditions Fewer Conditions

10-Day Weather Forecast

Almanac

Astronomy

Feb. 26, 2015 Rise Set
Actual Time
Civil Twilight
Nautical Twilight
Astronomical Twilight
Moon
Length of Visible Light
Length of Day
Tomorrow will be .
, % of the Moon is Illuminated

Today's Extremes

State Highs State Lows

Community

WunderPhotos

Upload Photos

1,800,553 photos uploaded!

WunderBlogs® & News

Nearby

Air Quality

  Air Quality AQ Index Pollutant
Not available.

Snow Depth

Station Depth Elevation

Earthquake Activity

City Distance Mag. Time & Date
Minimum magnitude displayed is 2.5.

Coastal Water Temperatures

Place Temperature

Nearby Weather Stations